Time;durP1;ratioP1;P1;durP2;ratioP2;P2;SDS_P1;SDS_P2;PMS_P1;PMS_P2;Temp;Humidity;BMP_temperature;BMP_pressure;BME280_temperature;BME280_humidity;BME280_pressure;Samples;Min_cycle;Max_cycle;Signal;HPM_P1;HPM_P2
2022/04/20 00:01:26;;;;;;;5.38;3.97;;;3.70;99.90;;;;;;4894831;29;20110;-49
2022/04/20 00:03:53;;;;;;;7.70;3.78;;;3.60;99.90;;;;;;4896166;29;20092;-48
2022/04/20 00:06:20;;;;;;;6.40;3.65;;;3.50;99.90;;;;;;4896523;29;20044;-48
2022/04/20 00:08:47;;;;;;;3.88;2.85;;;3.50;99.90;;;;;;4894812;29;20052;-50
2022/04/20 00:11:14;;;;;;;3.78;2.75;;;3.50;99.90;;;;;;4894221;29;20585;-51
2022/04/20 00:13:40;;;;;;;6.50;4.32;;;3.40;99.90;;;;;;4896293;29;20052;-48
2022/04/20 00:16:07;;;;;;;3.70;2.65;;;3.30;99.90;;;;;;4897251;29;20055;-49
2022/04/20 00:18:34;;;;;;;6.50;3.33;;;3.20;99.90;;;;;;4897752;29;20585;-50
2022/04/20 00:21:01;;;;;;;4.57;3.50;;;3.20;99.90;;;;;;4896317;29;20045;-50
2022/04/20 00:23:27;;;;;;;8.85;3.88;;;3.30;99.90;;;;;;4881353;29;20057;-49
2022/04/20 00:25:54;;;;;;;4.38;2.55;;;3.30;99.90;;;;;;4881134;29;20041;-49
2022/04/20 00:28:21;;;;;;;4.78;3.42;;;3.30;99.90;;;;;;4891420;29;20505;-49
2022/04/20 00:30:48;;;;;;;6.60;4.07;;;3.30;99.90;;;;;;4882553;29;20048;-48
2022/04/20 00:33:15;;;;;;;5.10;3.33;;;3.30;99.90;;;;;;4900025;29;20112;-49
2022/04/20 00:35:43;;;;;;;6.55;3.60;;;3.30;99.90;;;;;;4879343;29;20060;-48
2022/04/20 00:38:09;;;;;;;5.63;2.58;;;3.20;99.90;;;;;;4897456;29;20051;-48
2022/04/20 00:40:36;;;;;;;4.88;3.30;;;3.20;99.90;;;;;;4899150;29;20468;-48
2022/04/20 00:43:04;;;;;;;4.80;2.90;;;3.10;99.90;;;;;;4899878;29;20032;-51
2022/04/20 00:45:32;;;;;;;5.90;3.40;;;3.00;99.90;;;;;;4881622;29;20125;-49
2022/04/20 00:48:01;;;;;;;5.47;3.60;;;2.90;99.90;;;;;;4882555;29;20057;-49
2022/04/20 00:50:28;;;;;;;5.28;3.55;;;2.80;99.90;;;;;;4863792;29;20073;-49
2022/04/20 00:52:56;;;;;;;5.45;3.10;;;2.80;99.90;;;;;;4880874;29;20455;-50
2022/04/20 00:55:29;;;;;;;4.45;3.58;;;2.80;99.90;;;;;;4884123;29;20043;-49
2022/04/20 00:57:56;;;;;;;;;;;2.80;99.90;;;;;;4882884;29;20581;-50
2022/04/20 01:00:25;;;;;;;9.00;3.60;;;2.80;99.90;;;;;;4882127;29;20396;-49
2022/04/20 01:02:52;;;;;;;4.82;3.10;;;2.90;99.90;;;;;;4897918;29;20040;-51
2022/04/20 01:05:19;;;;;;;3.67;2.47;;;2.90;99.90;;;;;;4898203;29;20048;-48
2022/04/20 01:08:07;;;;;;;6.20;3.30;;;2.80;99.90;;;;;;4892367;29;20148;-49
2022/04/20 01:10:59;;;;;;;3.40;2.80;;;2.70;99.90;;;;;;4878791;29;20074;-49
2022/04/20 01:13:44;;;;;;;4.45;3.03;;;2.60;99.90;;;;;;4899185;29;20059;-49
2022/04/20 01:16:40;;;;;;;4.18;2.88;;;2.60;99.90;;;;;;4847841;29;20097;-49
2022/04/20 01:19:14;;;;;;;4.00;2.83;;;2.60;99.90;;;;;;4882125;29;20135;-49
2022/04/20 01:22:10;;;;;;;4.13;3.00;;;2.50;99.90;;;;;;4879846;29;20048;-49
2022/04/20 01:24:57;;;;;;;4.70;2.85;;;2.30;99.90;;;;;;4898657;29;20085;-49
2022/04/20 01:27:56;;;;;;;5.75;3.03;;;2.30;99.90;;;;;;4898795;29;20143;-50
2022/04/20 01:30:37;;;;;;;4.68;3.00;;;2.20;99.90;;;;;;4880684;29;20052;-48
2022/04/20 01:33:18;;;;;;;4.22;2.72;;;2.30;99.90;;;;;;4881938;29;20048;-50
2022/04/20 01:35:49;;;;;;;4.55;3.15;;;2.30;99.90;;;;;;4882025;29;20055;-48
2022/04/20 01:38:15;;;;;;;3.65;2.58;;;2.30;99.90;;;;;;4897402;29;20051;-48
2022/04/20 01:40:42;;;;;;;5.00;3.15;;;2.40;99.90;;;;;;4898024;29;20044;-48
2022/04/20 01:43:09;;;;;;;5.78;3.60;;;2.40;99.90;;;;;;4898680;29;20041;-49
2022/04/20 01:45:41;;;;;;;5.75;3.78;;;2.40;99.90;;;;;;4880746;29;20076;-48
2022/04/20 01:48:27;;;;;;;5.05;3.47;;;2.40;99.90;;;;;;4876610;29;20421;-48
2022/04/20 01:54:26;;;;;;;4.15;3.20;;;2.50;99.90;;;;;;4883004;29;20136;-48
2022/04/20 01:56:59;;;;;;;5.68;3.78;;;2.50;99.90;;;;;;4881539;29;20071;-49
2022/04/20 01:59:52;;;;;;;4.45;3.00;;;2.50;99.90;;;;;;4895951;29;20108;-48
2022/04/20 02:02:40;;;;;;;5.82;3.33;;;2.40;99.90;;;;;;4893855;29;20092;-48
2022/04/20 02:05:28;;;;;;;4.60;3.50;;;2.30;99.90;;;;;;4881573;29;20067;-49
2022/04/20 02:08:09;;;;;;;5.45;3.40;;;2.20;99.90;;;;;;4881367;29;20070;-52
2022/04/20 02:10:55;;;;;;;5.75;3.25;;;2.20;99.90;;;;;;4898001;29;20052;-48
2022/04/20 02:13:22;;;;;;;12.52;3.78;;;2.20;99.90;;;;;;4880148;29;20044;-50
2022/04/20 02:15:52;;;;;;;5.22;3.33;;;2.10;99.90;;;;;;4881145;29;20048;-49
2022/04/20 02:18:37;;;;;;;7.07;3.95;;;2.00;99.90;;;;;;4897921;29;20409;-48
2022/04/20 02:21:24;;;;;;;5.78;3.58;;;2.00;99.90;;;;;;4893720;29;20541;-48
2022/04/20 02:23:51;;;;;;;4.72;3.60;;;1.90;99.90;;;;;;4880780;29;20044;-48
2022/04/20 02:26:19;;;;;;;6.97;3.83;;;1.90;99.90;;;;;;4897990;29;20033;-48
2022/04/20 02:28:56;;;;;;;9.27;3.45;;;2.00;99.90;;;;;;4877334;29;20049;-85
2022/04/20 02:31:23;;;;;;;7.82;3.88;;;1.90;99.90;;;;;;4886002;29;20527;-53
2022/04/20 02:33:49;;;;;;;6.25;3.75;;;1.90;99.90;;;;;;4878278;29;20132;-54
2022/04/20 02:36:16;;;;;;;6.13;2.58;;;1.90;99.90;;;;;;4895213;29;20040;-53
2022/04/20 02:38:43;;;;;;;3.65;2.30;;;1.90;99.90;;;;;;4892903;29;20106;-51
2022/04/20 02:41:12;;;;;;;4.28;3.15;;;1.80;99.90;;;;;;4861662;29;20045;-53
2022/04/20 02:43:39;;;;;;;7.28;3.60;;;1.80;99.90;;;;;;4859087;29;20529;-51
2022/04/20 02:46:06;;;;;;;5.78;3.70;;;1.80;99.90;;;;;;4860162;29;20049;-54
2022/04/20 02:48:34;;;;;;;7.22;3.78;;;1.80;99.90;;;;;;4862572;29;20539;-51
2022/04/20 02:51:01;;;;;;;4.68;3.28;;;1.80;99.90;;;;;;4858503;29;20106;-51
2022/04/20 02:53:27;;;;;;;7.60;3.47;;;1.70;99.90;;;;;;4841747;29;20052;-54
2022/04/20 02:55:54;;;;;;;6.88;3.97;;;1.70;99.90;;;;;;4840445;29;20056;-52
2022/04/20 02:58:21;;;;;;;6.85;3.40;;;1.60;99.90;;;;;;4849959;29;20579;-51
2022/04/20 03:00:55;;;;;;;6.25;3.67;;;1.50;99.90;;;;;;4873739;29;20068;-52
2022/04/20 03:03:33;;;;;;;6.32;3.17;;;1.60;99.90;;;;;;4874296;29;20064;-51
2022/04/20 03:06:36;;;;;;;5.50;3.65;;;1.50;99.90;;;;;;4863265;29;20525;-52
2022/04/20 03:09:10;;;;;;;9.65;3.38;;;1.50;99.90;;;;;;4874034;29;20493;-54
2022/04/20 03:11:40;;;;;;;8.73;3.90;;;1.40;99.90;;;;;;4873553;29;20110;-52
2022/04/20 03:14:06;;;;;;;;;;;1.50;99.90;;;;;;4874592;29;20049;-53
2022/04/20 03:16:34;;;;;;;7.13;3.50;;;1.50;99.90;;;;;;4879584;29;19924;-54
2022/04/20 03:19:06;;;;;;;6.45;3.33;;;1.50;99.90;;;;;;4873749;29;20069;-52
2022/04/20 03:21:32;;;;;;;5.13;3.40;;;1.30;99.90;;;;;;4858081;29;20057;-50
2022/04/20 03:24:02;;;;;;;6.45;3.83;;;1.30;99.90;;;;;;4873838;29;20046;-51
2022/04/20 03:26:45;;;;;;;8.50;4.63;;;1.20;99.90;;;;;;4873031;29;20046;-52
2022/04/20 03:29:22;;;;;;;8.38;4.47;;;1.20;99.90;;;;;;4859306;29;20045;-51
2022/04/20 03:31:49;;;;;;;8.52;4.28;;;1.20;99.90;;;;;;4859433;29;20073;-54
2022/04/20 03:34:16;;;;;;;;;;;1.30;99.90;;;;;;4858718;29;20060;-52
2022/04/20 03:36:43;;;;;;;7.80;3.75;;;1.30;99.90;;;;;;4860207;29;19930;-53
2022/04/20 03:39:09;;;;;;;9.00;4.05;;;1.20;99.90;;;;;;4859305;29;20033;-54
2022/04/20 03:41:37;;;;;;;5.68;3.72;;;1.10;99.90;;;;;;4859196;29;20050;-52
2022/04/20 03:44:04;;;;;;;;;;;1.10;99.90;;;;;;4859440;29;20042;-54
2022/04/20 03:46:30;;;;;;;7.75;4.38;;;1.00;99.90;;;;;;4859296;29;20389;-52
2022/04/20 03:48:58;;;;;;;6.63;4.22;;;1.00;99.90;;;;;;4873506;29;20053;-56
2022/04/20 03:51:24;;;;;;;5.78;3.72;;;1.00;99.90;;;;;;4856958;29;20053;-55
2022/04/20 03:53:53;;;;;;;8.95;4.15;;;1.10;99.90;;;;;;4873317;29;20503;-54
2022/04/20 03:56:20;;;;;;;9.68;4.22;;;1.10;99.90;;;;;;4857836;29;20057;-52
2022/04/20 03:58:47;;;;;;;4.30;2.88;;;1.10;99.90;;;;;;4873463;29;20072;-54
2022/04/20 04:01:14;;;;;;;5.55;3.83;;;1.10;99.90;;;;;;4876721;29;20061;-54
2022/04/20 04:03:41;;;;;;;8.30;3.90;;;1.20;99.90;;;;;;4873358;29;20076;-53
2022/04/20 04:06:14;;;;;;;6.82;3.60;;;1.20;99.90;;;;;;4873517;29;20053;-53
2022/04/20 04:08:41;;;;;;;5.10;3.13;;;1.10;99.90;;;;;;4875044;29;20053;-54
2022/04/20 04:11:08;;;;;;;6.22;3.85;;;0.90;99.90;;;;;;4861326;29;20426;-53
2022/04/20 04:13:35;;;;;;;7.45;4.00;;;0.80;99.90;;;;;;4873364;29;20049;-52
2022/04/20 04:16:02;;;;;;;4.68;3.05;;;0.90;99.90;;;;;;4866456;29;20107;-55
2022/04/20 04:18:30;;;;;;;9.00;3.95;;;0.90;99.90;;;;;;4871193;29;20117;-52
2022/04/20 04:21:02;;;;;;;7.90;4.00;;;0.90;99.90;;;;;;4872771;29;20046;-51
2022/04/20 04:23:29;;;;;;;10.88;4.38;;;0.80;99.90;;;;;;4873288;29;20046;-53
2022/04/20 04:26:09;;;;;;;9.32;4.10;;;0.80;99.90;;;;;;4873082;29;20086;-52
2022/04/20 04:28:41;;;;;;;5.85;3.70;;;0.60;99.90;;;;;;4858174;29;20049;-52
2022/04/20 04:31:09;;;;;;;10.43;5.95;;;0.70;99.90;;;;;;4857052;29;20526;-54
2022/04/20 04:33:36;;;;;;;8.10;5.10;;;0.80;99.90;;;;;;4857809;29;20423;-55
2022/04/20 04:36:04;;;;;;;8.25;4.78;;;0.80;99.90;;;;;;4876699;29;20087;-52
2022/04/20 04:38:37;;;;;;;7.90;4.43;;;0.80;99.90;;;;;;4862400;29;20049;-54
2022/04/20 04:41:05;;;;;;;6.32;4.15;;;0.90;99.90;;;;;;4856736;29;20049;-55
2022/04/20 04:43:34;;;;;;;7.13;4.45;;;1.00;99.90;;;;;;4865287;29;20060;-56
2022/04/20 04:49:22;;;;;;;7.63;4.38;;;1.10;99.90;;;;;;4857785;29;20074;-54
2022/04/20 04:51:50;;;;;;;6.13;4.20;;;1.20;99.90;;;;;;4857485;29;20041;-54
2022/04/20 04:54:19;;;;;;;6.63;4.07;;;1.20;99.90;;;;;;4857654;29;20099;-55
2022/04/20 04:56:46;;;;;;;7.55;4.18;;;1.20;99.90;;;;;;4858492;29;20052;-52
2022/04/20 04:59:13;;;;;;;4.53;3.35;;;1.30;99.90;;;;;;4857364;29;20046;-55
2022/04/20 05:01:41;;;;;;;6.57;4.50;;;1.30;99.90;;;;;;4857359;29;20069;-55
2022/04/20 05:04:13;;;;;;;7.60;4.63;;;1.40;99.90;;;;;;4877220;29;20518;-55
2022/04/20 05:06:42;;;;;;;6.85;4.18;;;1.50;99.90;;;;;;4878846;29;20470;-52
2022/04/20 05:09:28;;;;;;;5.72;4.32;;;1.70;99.90;;;;;;4867162;29;20042;-53
2022/04/20 05:11:56;;;;;;;5.05;4.03;;;1.70;99.90;;;;;;4864753;29;20125;-54
2022/04/20 05:14:23;;;;;;;10.20;4.80;;;1.80;99.90;;;;;;4861271;29;20102;-55
2022/04/20 05:16:55;;;;;;;6.57;3.72;;;1.80;99.90;;;;;;4871056;29;20562;-51
2022/04/20 05:19:22;;;;;;;6.70;4.32;;;1.80;99.90;;;;;;4874358;29;20107;-54
2022/04/20 05:21:52;;;;;;;7.10;4.00;;;1.90;99.90;;;;;;4865421;29;20499;-52
2022/04/20 05:24:27;;;;;;;9.50;4.85;;;2.00;99.90;;;;;;4860469;29;20041;-54
2022/04/20 05:26:54;;;;;;;7.50;5.05;;;2.00;99.90;;;;;;4860427;29;20057;-52
2022/04/20 05:29:21;;;;;;;;;;;2.10;99.90;;;;;;4860987;29;20060;-55
2022/04/20 05:31:59;;;;;;;10.10;5.63;;;2.10;99.90;;;;;;4866262;29;19930;-55
2022/04/20 05:34:30;;;;;;;12.25;5.68;;;2.10;99.90;;;;;;4865032;29;20045;-52
2022/04/20 05:42:30;;;;;;;9.73;6.22;;;2.20;99.90;;;;;;4878617;29;20140;-52
2022/04/20 05:44:57;;;;;;;10.85;6.10;;;2.30;99.90;;;;;;4860321;29;20056;-50
2022/04/20 05:47:24;;;;;;;12.65;6.50;;;2.30;99.90;;;;;;4890033;29;20045;-53
2022/04/20 05:49:50;;;;;;;11.48;6.75;;;2.30;99.90;;;;;;4870516;29;20049;-54
2022/04/20 05:52:18;;;;;;;8.32;6.10;;;2.30;99.90;;;;;;4859702;29;20562;-52
2022/04/20 05:54:46;;;;;;;10.07;6.55;;;2.40;99.90;;;;;;4875266;29;20140;-51
2022/04/20 05:57:13;;;;;;;9.57;5.85;;;2.30;99.90;;;;;;4858858;29;20056;-54
2022/04/20 05:59:46;;;;;;;12.65;6.63;;;2.30;99.90;;;;;;4874663;29;20511;-52
2022/04/20 06:02:14;;;;;;;10.52;6.40;;;2.40;99.90;;;;;;4859486;29;20057;-53
2022/04/20 06:04:42;;;;;;;7.15;5.28;;;2.50;99.90;;;;;;4859823;29;20143;-53
2022/04/20 06:07:29;;;;;;;8.15;6.03;;;2.60;99.90;;;;;;4871710;29;20057;-54
2022/04/20 06:10:16;;;;;;;;;;;2.70;99.90;;;;;;4846924;29;20050;-53
2022/04/20 06:12:51;;;;;;;8.85;5.68;;;2.90;99.90;;;;;;4875100;29;19931;-53
2022/04/20 06:15:38;;;;;;;12.80;6.75;;;2.90;99.90;;;;;;4860383;29;20077;-52
2022/04/20 06:18:05;;;;;;;10.70;5.90;;;3.00;99.90;;;;;;4860635;29;20053;-52
2022/04/20 06:20:32;;;;;;;10.32;6.28;;;3.10;99.90;;;;;;4874380;29;20072;-52
2022/04/20 06:23:20;;;;;;;9.35;5.95;;;3.20;99.90;;;;;;4861045;29;20098;-54
2022/04/20 06:26:04;;;;;;;9.80;6.03;;;3.30;99.90;;;;;;4874747;29;20105;-52
2022/04/20 06:28:44;;;;;;;12.50;5.25;;;3.50;99.90;;;;;;4859191;29;20117;-55
2022/04/20 06:31:29;;;;;;;9.40;5.40;;;3.60;99.90;;;;;;4874270;29;20507;-52
2022/04/20 06:34:15;;;;;;;7.10;5.25;;;3.80;99.90;;;;;;4875933;29;20220;-53
2022/04/20 06:37:05;;;;;;;6.85;4.90;;;3.90;99.90;;;;;;4860257;29;20151;-53
2022/04/20 06:39:45;;;;;;;9.10;5.38;;;4.10;99.90;;;;;;4874268;29;20450;-53
2022/04/20 06:42:31;;;;;;;7.50;5.00;;;4.10;99.90;;;;;;4860710;29;20128;-53
2022/04/20 06:45:16;;;;;;;12.38;5.03;;;4.20;99.90;;;;;;4874495;29;20053;-52
2022/04/20 06:47:49;;;;;;;6.55;4.85;;;4.40;99.90;;;;;;4874604;29;20052;-53
2022/04/20 06:50:36;;;;;;;6.07;4.50;;;4.40;99.90;;;;;;4858624;29;20088;-54
2022/04/20 06:58:52;;;;;;;6.82;4.00;;;4.80;99.90;;;;;;4874296;29;20068;-54
2022/04/20 07:01:38;;;;;;;6.28;4.22;;;4.90;99.90;;;;;;4862968;29;20056;-54
2022/04/20 07:04:23;;;;;;;6.20;5.00;;;5.00;99.90;;;;;;4860420;29;20148;-52
2022/04/20 07:07:08;;;;;;;4.80;3.70;;;5.20;99.90;;;;;;4874270;29;20073;-53
2022/04/20 07:09:55;;;;;;;4.72;3.58;;;5.30;99.90;;;;;;4876974;29;20152;-54
2022/04/20 07:12:35;;;;;;;6.72;3.83;;;5.40;99.90;;;;;;4874395;29;20070;-51
2022/04/20 07:15:01;;;;;;;6.78;3.60;;;5.50;99.90;;;;;;4873964;29;20049;-51
2022/04/20 07:17:29;;;;;;;;;;;5.60;99.90;;;;;;4874219;29;20076;-53
2022/04/20 07:20:27;;;;;;;7.72;3.88;;;5.70;99.90;;;;;;4858993;29;20059;-52
2022/04/20 07:23:13;;;;;;;5.25;3.63;;;5.80;99.90;;;;;;4858639;29;20141;-53
2022/04/20 07:25:50;;;;;;;;;;;5.90;99.90;;;;;;4862324;29;20569;-52
2022/04/20 07:28:34;;;;;;;7.75;3.97;;;5.90;99.90;;;;;;4858479;29;19943;-53
2022/04/20 07:31:19;;;;;;;7.50;4.38;;;6.00;99.90;;;;;;4859463;29;20064;-54
2022/04/20 07:34:19;;;;;;;7.70;4.28;;;6.10;99.90;;;;;;4873460;29;20502;-52
2022/04/20 07:37:01;;;;;;;6.85;4.28;;;6.10;99.90;;;;;;4858119;29;20072;-52
2022/04/20 07:39:47;;;;;;;8.68;5.18;;;6.20;99.90;;;;;;4859358;29;20056;-52
2022/04/20 07:42:39;;;;;;;8.02;5.97;;;6.30;99.90;;;;;;4873630;29;20045;-54
2022/04/20 07:45:26;;;;;;;10.05;6.72;;;6.50;99.90;;;;;;4872882;29;20046;-54
2022/04/20 07:48:08;;;;;;;11.10;7.40;;;6.60;99.90;;;;;;4858182;29;20060;-56
2022/04/20 07:50:43;;;;;;;13.07;8.07;;;6.50;99.90;;;;;;4858863;29;20041;-55
2022/04/20 07:53:20;;;;;;;10.90;7.72;;;6.60;99.90;;;;;;4872738;29;20053;-52
2022/04/20 07:55:48;;;;;;;10.57;6.95;;;6.60;99.90;;;;;;4859679;29;20110;-53
2022/04/20 07:58:40;;;;;;;9.68;6.80;;;6.50;99.90;;;;;;4866790;29;20068;-53
2022/04/20 08:01:25;;;;;;;10.13;7.00;;;6.50;99.90;;;;;;4858919;29;20055;-54
2022/04/20 08:03:52;;;;;;;12.20;7.00;;;6.50;99.90;;;;;;4859307;29;20515;-52
2022/04/20 08:06:27;;;;;;;12.73;8.57;;;6.50;99.90;;;;;;4873217;29;20106;-53
2022/04/20 08:08:54;;;;;;;11.55;8.25;;;6.40;99.90;;;;;;4877369;29;20045;-55
2022/04/20 08:11:20;;;;;;;12.77;8.52;;;6.50;99.90;;;;;;4858748;29;20045;-51
2022/04/20 08:14:30;;;;;;;13.32;9.07;;;6.30;99.90;;;;;;4857826;29;20615;-53
2022/04/20 08:16:49;;;;;;;13.23;9.15;;;6.30;99.90;;;;;;4861870;29;20053;-52
2022/04/20 08:19:26;;;;;;;16.65;9.35;;;6.30;99.90;;;;;;4858987;29;20088;-57
2022/04/20 08:22:15;;;;;;;13.25;9.30;;;6.30;99.90;;;;;;4845370;29;20511;-53
2022/04/20 08:24:45;;;;;;;13.75;9.40;;;6.40;99.90;;;;;;4859008;29;20078;-53
2022/04/20 08:27:14;;;;;;;13.07;8.45;;;6.40;99.90;;;;;;4858601;29;20046;-53
2022/04/20 08:29:42;;;;;;;14.50;10.13;;;6.40;99.90;;;;;;4879290;23;20045;-49
2022/04/20 08:32:09;;;;;;;15.20;10.15;;;6.30;99.90;;;;;;4912144;29;20044;-49
2022/04/20 08:34:39;;;;;;;14.23;10.18;;;6.40;99.90;;;;;;4914732;29;20099;-54
2022/04/20 08:37:25;;;;;;;;;;;6.40;99.90;;;;;;4920430;29;20100;-49
2022/04/20 08:39:52;;;;;;;14.68;10.23;;;6.40;99.90;;;;;;4921320;29;20021;-48
2022/04/20 08:42:21;;;;;;;15.15;9.98;;;6.50;99.90;;;;;;4917425;29;20048;-49
2022/04/20 08:44:50;;;;;;;15.30;9.88;;;6.40;99.90;;;;;;4918643;29;20043;-51
2022/04/20 08:47:22;;;;;;;15.63;10.52;;;6.40;99.90;;;;;;4917272;29;20512;-50
2022/04/20 08:49:51;;;;;;;17.20;10.63;;;6.40;99.90;;;;;;4912962;29;20493;-51
2022/04/20 08:55:11;;;;;;;17.73;11.05;;;6.40;99.90;;;;;;4918621;29;20135;-50
2022/04/20 08:57:39;;;;;;;17.45;10.88;;;6.40;99.90;;;;;;4913156;29;20048;-50
2022/04/20 09:00:12;;;;;;;18.30;10.93;;;6.60;99.90;;;;;;4917776;29;20055;-50
2022/04/20 09:02:39;;;;;;;23.60;11.85;;;6.70;99.90;;;;;;4918129;29;20115;-50
2022/04/20 09:05:07;;;;;;;16.48;11.23;;;6.80;99.90;;;;;;4916992;29;20359;-49
2022/04/20 09:07:34;;;;;;;17.17;11.88;;;7.00;99.90;;;;;;4911028;29;20048;-48
2022/04/20 09:10:01;;;;;;;11.35;8.23;;;7.20;99.90;;;;;;4917662;29;20068;-51
2022/04/20 09:12:28;;;;;;;14.38;10.65;;;7.40;99.90;;;;;;4918020;29;20126;-48
2022/04/20 09:14:56;;;;;;;;;;;7.40;99.90;;;;;;4915144;29;20417;-48
2022/04/20 09:17:26;;;;;;;15.52;10.15;;;7.40;99.90;;;;;;4916568;29;20419;-49
2022/04/20 09:19:56;;;;;;;15.57;10.75;;;7.40;99.90;;;;;;4917566;29;20048;-51
2022/04/20 09:22:23;;;;;;;17.15;10.98;;;7.50;99.90;;;;;;4915420;29;20039;-48
2022/04/20 09:24:59;;;;;;;18.65;11.07;;;7.60;99.90;;;;;;4917800;29;20048;-49
2022/04/20 09:27:27;;;;;;;18.15;11.10;;;7.70;99.90;;;;;;4917741;29;20055;-51
2022/04/20 09:29:55;;;;;;;13.95;10.27;;;7.90;99.90;;;;;;4917136;29;20055;-52
2022/04/20 09:32:32;;;;;;;18.52;11.30;;;7.90;99.90;;;;;;4915323;29;20048;-52
2022/04/20 09:34:59;;;;;;;13.93;10.48;;;8.00;99.90;;;;;;4917473;29;20521;-48
2022/04/20 09:37:26;;;;;;;15.90;10.57;;;8.00;99.90;;;;;;4917744;29;20047;-52
2022/04/20 09:39:57;;;;;;;16.63;10.38;;;8.10;99.90;;;;;;4912845;29;20051;-48
2022/04/20 09:42:27;;;;;;;16.45;10.88;;;8.20;99.90;;;;;;4916562;29;20047;-52
2022/04/20 09:44:57;;;;;;;16.88;10.32;;;8.20;99.90;;;;;;4917239;29;20091;-49
2022/04/20 09:50:25;;;;;;;16.25;10.27;;;8.50;99.90;;;;;;4913891;29;20048;-48
2022/04/20 09:52:55;;;;;;;14.38;9.35;;;8.80;99.90;;;;;;4916884;29;20048;-52
2022/04/20 09:55:33;;;;;;;12.82;9.27;;;8.90;99.90;;;;;;4914949;29;20050;-51
2022/04/20 09:58:10;;;;;;;;;;;9.00;99.90;;;;;;4916756;29;20055;-49
2022/04/20 10:00:39;;;;;;;12.27;8.80;;;9.10;99.90;;;;;;4910097;29;19955;-49
2022/04/20 10:03:07;;;;;;;12.05;8.88;;;9.10;99.90;;;;;;4917032;29;20064;-50
2022/04/20 10:05:34;;;;;;;13.35;9.05;;;9.10;99.90;;;;;;4917132;29;20048;-52
2022/04/20 10:08:02;;;;;;;13.75;9.10;;;9.20;99.90;;;;;;4914418;29;20231;-49
2022/04/20 10:10:35;;;;;;;13.23;8.63;;;9.40;99.90;;;;;;4908864;29;20056;-49
2022/04/20 10:13:04;;;;;;;13.07;9.32;;;9.50;99.90;;;;;;4917136;29;20055;-50
2022/04/20 10:18:19;;;;;;;12.95;8.50;;;9.80;99.90;;;;;;4916849;29;20131;-48
2022/04/20 10:20:50;;;;;;;11.60;8.65;;;9.80;99.90;;;;;;4916270;29;20037;-50
2022/04/20 10:23:19;;;;;;;11.55;8.23;;;9.80;99.90;;;;;;4915513;29;20062;-52
2022/04/20 10:25:50;;;;;;;11.80;8.38;;;9.90;99.90;;;;;;4911375;29;20040;-48
2022/04/20 10:28:53;;;;;;;13.05;8.20;;;10.00;99.90;;;;;;4916604;29;20044;-52
2022/04/20 10:31:30;;;;;;;12.27;8.88;;;10.00;99.90;;;;;;4915931;29;20044;-51
2022/04/20 10:34:03;;;;;;;11.18;8.05;;;10.10;99.90;;;;;;4915223;29;20110;-50
2022/04/20 10:36:59;;;;;;;14.30;8.52;;;10.10;99.90;;;;;;4915206;29;20048;-48
2022/04/20 10:39:33;;;;;;;11.23;7.30;;;10.20;99.90;;;;;;4914813;29;20059;-49
2022/04/20 10:42:17;;;;;;;10.60;7.35;;;10.20;99.90;;;;;;4912263;29;20123;-52
2022/04/20 10:45:01;;;;;;;9.48;6.65;;;10.40;99.90;;;;;;4916332;29;20036;-49
2022/04/20 10:47:36;;;;;;;12.68;7.63;;;10.60;99.90;;;;;;4916546;29;20067;-49
2022/04/20 10:50:30;;;;;;;11.65;7.70;;;10.50;99.90;;;;;;4916068;29;20056;-49
2022/04/20 10:53:06;;;;;;;13.57;7.18;;;10.50;99.90;;;;;;4909159;29;20059;-49
2022/04/20 10:55:37;;;;;;;12.13;7.18;;;10.50;99.90;;;;;;4915031;29;20143;-49
2022/04/20 10:58:16;;;;;;;8.43;6.60;;;10.60;99.90;;;;;;4916166;29;20060;-50
2022/04/20 11:00:43;;;;;;;9.93;6.45;;;10.80;99.90;;;;;;4914781;29;20055;-50
2022/04/20 11:03:11;;;;;;;10.75;6.22;;;10.90;99.90;;;;;;4912685;29;20542;-50
2022/04/20 11:05:55;;;;;;;7.53;5.72;;;11.00;99.90;;;;;;4915468;29;20040;-50
2022/04/20 11:08:24;;;;;;;10.68;6.20;;;11.10;99.90;;;;;;4913091;29;20141;-49
2022/04/20 11:19:52;;;;;;;7.47;4.88;;;11.40;99.90;;;;;;4913050;29;20051;-50
2022/04/20 11:22:27;;;;;;;10.57;5.38;;;11.50;99.90;;;;;;4914468;29;20135;-50
2022/04/20 11:25:06;;;;;;;7.88;5.25;;;11.60;99.90;;;;;;4907074;29;20059;-49
2022/04/20 11:27:34;;;;;;;5.68;4.55;;;11.70;99.90;;;;;;4914078;29;20055;-48
2022/04/20 11:30:02;;;;;;;6.45;4.60;;;11.70;99.90;;;;;;4908980;29;20048;-50
2022/04/20 11:32:30;;;;;;;5.00;3.95;;;11.70;99.90;;;;;;4910979;29;20048;-50
2022/04/20 11:35:15;;;;;;;6.28;4.10;;;11.80;99.90;;;;;;4907840;29;20040;-49
2022/04/20 11:37:56;;;;;;;7.57;3.90;;;12.00;99.90;;;;;;4911617;29;20048;-51
2022/04/20 11:40:23;;;;;;;8.52;3.92;;;11.90;99.90;;;;;;4909654;29;20068;-53
2022/04/20 11:43:04;;;;;;;5.68;4.00;;;12.00;99.90;;;;;;4911425;29;20063;-50
2022/04/20 11:45:52;;;;;;;5.13;3.90;;;12.10;99.90;;;;;;4909643;29;20043;-52
2022/04/20 11:48:20;;;;;;;7.32;3.92;;;12.20;99.90;;;;;;4912942;29;20417;-51
2022/04/20 11:50:57;;;;;;;5.30;4.03;;;12.30;99.90;;;;;;4909604;29;20501;-50
2022/04/20 11:53:38;;;;;;;4.78;3.67;;;12.20;99.90;;;;;;4912206;29;20052;-50
2022/04/20 11:56:40;;;;;;;6.20;4.20;;;12.10;99.90;;;;;;4906315;29;20568;-50
2022/04/20 11:59:08;;;;;;;5.88;3.45;;;12.00;99.90;;;;;;4910797;29;20083;-50
2022/04/20 12:01:37;;;;;;;8.32;3.65;;;12.20;99.90;;;;;;4910994;29;20043;-49
2022/04/20 12:04:15;;;;;;;4.95;3.67;;;12.30;99.90;;;;;;4910642;29;20501;-50
2022/04/20 12:06:53;;;;;;;5.47;3.55;;;12.40;99.90;;;;;;4910603;29;20040;-50
2022/04/20 12:09:31;;;;;;;3.58;3.15;;;12.50;99.90;;;;;;4909436;29;20414;-49
2022/04/20 12:11:58;;;;;;;;;;;12.70;99.90;;;;;;4915708;29;20103;-51
2022/04/20 12:14:37;;;;;;;5.47;3.95;;;12.80;99.90;;;;;;4914456;29;19946;-49
2022/04/20 12:17:20;;;;;;;4.63;3.58;;;12.70;99.90;;;;;;4915190;29;20131;-50
2022/04/20 12:19:49;;;;;;;7.13;3.83;;;12.80;99.90;;;;;;4913076;29;20044;-49
2022/04/20 12:22:21;;;;;;;7.90;4.00;;;13.00;99.00;;;;;;4918749;29;20057;-49
2022/04/20 12:25:03;;;;;;;5.20;3.67;;;12.90;99.50;;;;;;4912892;29;20036;-53
2022/04/20 12:27:29;;;;;;;6.75;3.50;;;13.00;98.90;;;;;;4915893;29;20095;-49
2022/04/20 12:29:58;;;;;;;4.85;3.47;;;13.10;99.30;;;;;;4914328;29;20052;-49
2022/04/20 12:32:26;;;;;;;6.20;3.72;;;13.00;99.00;;;;;;4917599;29;20094;-50
2022/04/20 12:35:01;;;;;;;4.13;3.28;;;13.20;99.20;;;;;;4913155;29;20076;-48
2022/04/20 12:37:31;;;;;;;4.72;3.42;;;13.20;98.50;;;;;;4911180;29;20482;-50
2022/04/20 12:40:22;;;;;;;7.85;3.38;;;13.20;98.20;;;;;;4915771;29;20493;-49
2022/04/20 12:43:12;;;;;;;6.38;3.20;;;13.30;99.40;;;;;;4912485;29;20690;-49
2022/04/20 12:45:42;;;;;;;6.85;3.47;;;13.40;98.10;;;;;;4913504;29;20052;-49
2022/04/20 12:48:11;;;;;;;5.38;3.60;;;13.30;97.70;;;;;;4916722;29;20044;-49
2022/04/20 12:50:46;;;;;;;4.75;3.13;;;13.30;97.00;;;;;;4913255;29;20043;-50
2022/04/20 12:53:12;;;;;;;8.02;3.50;;;13.40;97.20;;;;;;4916234;29;20041;-49
2022/04/20 13:02:01;;;;;;;5.07;3.22;;;13.30;97.40;;;;;;4914838;29;20040;-49
2022/04/20 13:04:15;;;;;;;7.18;3.75;;;13.40;97.30;;;;;;4913840;29;20388;-51
2022/04/20 13:06:42;;;;;;;4.70;3.92;;;13.30;97.20;;;;;;4913418;29;20107;-50
2022/04/20 13:09:09;;;;;;;4.43;3.25;;;13.50;98.40;;;;;;4913580;29;20045;-50
2022/04/20 13:11:36;;;;;;;4.57;3.72;;;13.50;97.70;;;;;;4915904;29;20047;-50
2022/04/20 13:14:07;;;;;;;7.60;4.15;;;13.50;97.50;;;;;;4914002;29;20048;-51
2022/04/20 13:16:34;;;;;;;6.18;4.05;;;13.50;96.80;;;;;;4914828;29;20042;-51
2022/04/20 13:19:00;;;;;;;5.93;4.00;;;13.60;97.40;;;;;;4913808;29;20055;-49
2022/04/20 13:21:29;;;;;;;4.80;3.78;;;13.60;98.10;;;;;;4913920;29;20040;-49
2022/04/20 13:23:56;;;;;;;5.10;3.70;;;13.70;96.10;;;;;;4912404;29;20393;-51
2022/04/20 13:29:10;;;;;;;5.43;3.58;;;13.60;96.40;;;;;;4915165;29;20038;-50
2022/04/20 13:31:37;;;;;;;7.88;3.58;;;13.60;96.20;;;;;;4915138;29;20047;-49
2022/04/20 13:34:03;;;;;;;5.70;3.35;;;13.60;96.20;;;;;;4912701;29;20512;-50
2022/04/20 13:36:30;;;;;;;4.43;3.42;;;13.60;95.80;;;;;;4916182;29;20405;-52
2022/04/20 13:38:57;;;;;;;5.35;3.10;;;13.70;96.80;;;;;;4913071;29;20435;-50
2022/04/20 13:41:24;;;;;;;6.68;3.88;;;13.70;96.00;;;;;;4913644;29;20099;-49
2022/04/20 13:43:51;;;;;;;4.68;3.47;;;13.90;95.10;;;;;;4914001;29;20110;-52
2022/04/20 13:46:18;;;;;;;4.45;3.50;;;13.90;95.80;;;;;;4915002;29;20401;-50
2022/04/20 13:48:44;;;;;;;5.45;3.17;;;13.90;95.50;;;;;;4914910;29;20505;-49
2022/04/20 13:51:12;;;;;;;4.57;3.60;;;14.00;96.60;;;;;;4912569;29;20044;-52
2022/04/20 13:53:39;;;;;;;7.43;3.38;;;14.10;94.40;;;;;;4912874;29;20056;-51
2022/04/20 13:56:06;;;;;;;4.97;3.60;;;14.00;94.10;;;;;;4915517;29;20052;-50
2022/04/20 13:58:36;;;;;;;6.35;3.33;;;14.10;95.50;;;;;;4910979;29;20498;-52
2022/04/20 14:01:03;;;;;;;7.00;3.75;;;14.10;94.70;;;;;;4914341;29;20036;-50
2022/04/20 14:03:29;;;;;;;5.45;3.35;;;14.00;94.60;;;;;;4912293;29;20056;-51
2022/04/20 14:05:56;;;;;;;5.28;3.60;;;13.90;94.80;;;;;;4911833;29;20527;-51
2022/04/20 14:08:23;;;;;;;7.35;3.58;;;13.90;94.50;;;;;;4913207;29;20032;-52